Portada
METAR-TAF:

METAR-TAF

Aeroports :

Petropavl, Kazakhstan

latitud: 54-46-28N, longitud: 069-11-06E, altitud: 139 m

Observació

L'informe es va fer fa 26 minuts, a les 11:00 UTC
Vent 8 kt del Oest/Sud-Oest
Temperatura -1°C
Humitat 86%
Pressió 1021 hPa
Visibilitat 10 km o més
Cel ennuvolat a una alçada de 800 ft
Cel cobert a una alçada de 2600 ft

METAR: UACP 121100Z 24004MPS 9999 BKN008 OVC026 M01/M03 Q1021 R23/0/0060 NOSIG RMK QFE753/1004

Hora: 17:26 (11:26 UTC)

Pronòstic

L'informe es va fer fa 3 hores i 23 minuts, a les 08:03 UTC
Pronòstic vàlid del 12 a les 09 UTC al 12 a les 18 UTC
Vent 10 kt del Sud-Oest
Visibilitat 10 km o més
Cel cobert a una alçada de 1100 ft
Temporalment
l' 12 a les 09 UTC al 12 a les 15 UTC
Cel ennuvolat a una alçada de 800 ft

TAF: UACP 120803Z 1209/1218 23005MPS 9999 OVC011 TEMPO 1209/1215 BKN008

Observacions i pronòstics meteorològics de més de 4000 aeroports (METAR i TAF).

Les estacions disponibles són els punts grocs i vermells al mapa.

Posi el ratolí al punt desitjat per veure el nom de l'estació.

Feu clic per veure les observacions i els pronòstics meteorològics.

Per canviar el mapa: feu clic els botons verds amb una creu de color negre per apropar; al botó verd amb un guió per allunyar la imatge; o en les fletxes verdes per a mapes adjacents.


METAR-TAF: